sensor_id;sensor_type;location;lat;lon;timestamp;temperature;humidity
6824;DHT22;58633;49.470;11.004;2022-12-19T00:01:08;-1.40;63.60
6824;DHT22;58633;49.470;11.004;2022-12-19T00:03:48;-0.90;64.80
6824;DHT22;58633;49.470;11.004;2022-12-19T00:06:15;-1.40;63.90
6824;DHT22;58633;49.470;11.004;2022-12-19T00:08:43;-1.50;63.80
6824;DHT22;58633;49.470;11.004;2022-12-19T00:13:35;-1.60;63.70
6824;DHT22;58633;49.470;11.004;2022-12-19T00:16:05;-1.60;63.70
6824;DHT22;58633;49.470;11.004;2022-12-19T00:18:32;-1.60;63.70
6824;DHT22;58633;49.470;11.004;2022-12-19T00:21:02;-0.80;65.10
6824;DHT22;58633;49.470;11.004;2022-12-19T00:23:30;-0.70;65.40
6824;DHT22;58633;49.470;11.004;2022-12-19T00:26:12;-1.70;63.90
6824;DHT22;58633;49.470;11.004;2022-12-19T00:28:38;-1.80;64.40
6824;DHT22;58633;49.470;11.004;2022-12-19T00:31:04;-1.40;65.00
6824;DHT22;58633;49.470;11.004;2022-12-19T00:36:04;-1.10;65.30
6824;DHT22;58633;49.470;11.004;2022-12-19T00:41:27;-0.70;65.70
6824;DHT22;58633;49.470;11.004;2022-12-19T00:43:54;-0.40;65.70
6824;DHT22;58633;49.470;11.004;2022-12-19T00:51:18;-1.70;64.20
6824;DHT22;58633;49.470;11.004;2022-12-19T00:53:45;-1.70;64.30
6824;DHT22;58633;49.470;11.004;2022-12-19T00:56:19;-1.00;65.40
6824;DHT22;58633;49.470;11.004;2022-12-19T00:58:45;-1.70;64.10
6824;DHT22;58633;49.470;11.004;2022-12-19T01:01:20;-1.30;65.10
6824;DHT22;58633;49.470;11.004;2022-12-19T01:03:46;-1.70;64.10
6824;DHT22;58633;49.470;11.004;2022-12-19T01:06:12;-1.70;64.00
6824;DHT22;58633;49.470;11.004;2022-12-19T01:13:32;-0.30;65.90
6824;DHT22;58633;49.470;11.004;2022-12-19T01:16:03;-0.70;65.60
6824;DHT22;58633;49.470;11.004;2022-12-19T01:20:58;-1.70;64.00
6824;DHT22;58633;49.470;11.004;2022-12-19T01:23:24;-1.80;64.50
6824;DHT22;58633;49.470;11.004;2022-12-19T01:25:53;-1.80;64.00
6824;DHT22;58633;49.470;11.004;2022-12-19T01:28:19;-1.00;65.30
6824;DHT22;58633;49.470;11.004;2022-12-19T01:33:12;-0.50;65.60
6824;DHT22;58633;49.470;11.004;2022-12-19T01:45:29;-1.80;63.80
6824;DHT22;58633;49.470;11.004;2022-12-19T01:48:12;-1.70;64.40
6824;DHT22;58633;49.470;11.004;2022-12-19T01:51:00;-1.70;64.00
6824;DHT22;58633;49.470;11.004;2022-12-19T01:53:30;-1.70;64.50
6824;DHT22;58633;49.470;11.004;2022-12-19T01:58:23;-1.90;63.80
6824;DHT22;58633;49.470;11.004;2022-12-19T02:00:49;-1.40;65.00
6824;DHT22;58633;49.470;11.004;2022-12-19T02:03:23;-2.10;64.40
6824;DHT22;58633;49.470;11.004;2022-12-19T02:05:51;-1.70;64.20
6824;DHT22;58633;49.470;11.004;2022-12-19T02:13:09;-1.90;64.10
6824;DHT22;58633;49.470;11.004;2022-12-19T02:15:54;-1.80;64.20
6824;DHT22;58633;49.470;11.004;2022-12-19T02:32:03;-1.80;64.20
6824;DHT22;58633;49.470;11.004;2022-12-19T02:37:27;-1.90;64.10
6824;DHT22;58633;49.470;11.004;2022-12-19T02:40:25;-1.80;64.40
6824;DHT22;58633;49.470;11.004;2022-12-19T02:43:00;-1.80;64.40
6824;DHT22;58633;49.470;11.004;2022-12-19T02:45:31;-1.80;64.20
6824;DHT22;58633;49.470;11.004;2022-12-19T02:47:59;-1.60;64.90
6824;DHT22;58633;49.470;11.004;2022-12-19T02:50:33;-1.30;65.10
6824;DHT22;58633;49.470;11.004;2022-12-19T02:58:04;-0.80;66.00
6824;DHT22;58633;49.470;11.004;2022-12-19T03:01:02;-1.70;64.70
6824;DHT22;58633;49.470;11.004;2022-12-19T03:08:52;-2.30;64.50
6824;DHT22;58633;49.470;11.004;2022-12-19T03:11:21;-1.70;64.60
6824;DHT22;58633;49.470;11.004;2022-12-19T03:18:44;-1.70;64.60
6824;DHT22;58633;49.470;11.004;2022-12-19T03:21:30;-1.60;64.70
6824;DHT22;58633;49.470;11.004;2022-12-19T03:23:57;-1.50;64.80
6824;DHT22;58633;49.470;11.004;2022-12-19T03:26:25;-1.50;64.70
6824;DHT22;58633;49.470;11.004;2022-12-19T03:29:24;-1.60;65.20
6824;DHT22;58633;49.470;11.004;2022-12-19T03:36:50;-1.60;64.60
6824;DHT22;58633;49.470;11.004;2022-12-19T03:39:18;-1.50;64.70
6824;DHT22;58633;49.470;11.004;2022-12-19T03:44:39;-0.70;66.40
6824;DHT22;58633;49.470;11.004;2022-12-19T03:52:24;-1.50;64.80
6824;DHT22;58633;49.470;11.004;2022-12-19T03:57:35;-1.20;66.00
6824;DHT22;58633;49.470;11.004;2022-12-19T04:00:08;-1.40;65.10
6824;DHT22;58633;49.470;11.004;2022-12-19T04:02:37;-1.00;66.20
6824;DHT22;58633;49.470;11.004;2022-12-19T04:05:09;-1.60;65.80
6824;DHT22;58633;49.470;11.004;2022-12-19T04:07:38;-0.50;67.00
6824;DHT22;58633;49.470;11.004;2022-12-19T04:10:05;-1.30;66.10
6824;DHT22;58633;49.470;11.004;2022-12-19T04:12:37;-1.30;65.20
6824;DHT22;58633;49.470;11.004;2022-12-19T04:15:05;-1.30;65.20
6824;DHT22;58633;49.470;11.004;2022-12-19T04:17:50;-1.10;65.90
6824;DHT22;58633;49.470;11.004;2022-12-19T04:20:19;-1.30;65.20
6824;DHT22;58633;49.470;11.004;2022-12-19T04:22:59;-1.30;65.20
6824;DHT22;58633;49.470;11.004;2022-12-19T04:25:30;-1.30;65.10
6824;DHT22;58633;49.470;11.004;2022-12-19T04:27:59;-1.00;66.00
6824;DHT22;58633;49.470;11.004;2022-12-19T04:30:25;-1.00;66.10
6824;DHT22;58633;49.470;11.004;2022-12-19T04:32:51;-1.50;65.50
6824;DHT22;58633;49.470;11.004;2022-12-19T04:35:17;-1.00;65.30
6824;DHT22;58633;49.470;11.004;2022-12-19T04:37:42;-1.20;65.70
6824;DHT22;58633;49.470;11.004;2022-12-19T04:40:09;-1.00;65.40
6824;DHT22;58633;49.470;11.004;2022-12-19T04:45:03;-1.20;65.20
6824;DHT22;58633;49.470;11.004;2022-12-19T04:49:55;-1.00;65.50
6824;DHT22;58633;49.470;11.004;2022-12-19T04:52:20;-1.00;66.10
6824;DHT22;58633;49.470;11.004;2022-12-19T05:02:04;-1.40;65.70
6824;DHT22;58633;49.470;11.004;2022-12-19T05:04:29;-1.50;65.60
6824;DHT22;58633;49.470;11.004;2022-12-19T05:06:55;-0.90;65.70
6824;DHT22;58633;49.470;11.004;2022-12-19T05:16:40;-1.20;66.00
6824;DHT22;58633;49.470;11.004;2022-12-19T05:23:58;-0.90;65.40
6824;DHT22;58633;49.470;11.004;2022-12-19T05:31:18;-0.90;66.00
6824;DHT22;58633;49.470;11.004;2022-12-19T05:33:45;-1.00;66.00
6824;DHT22;58633;49.470;11.004;2022-12-19T05:36:12;-1.00;66.00
6824;DHT22;58633;49.470;11.004;2022-12-19T05:41:09;-0.90;66.30
6824;DHT22;58633;49.470;11.004;2022-12-19T05:46:03;-1.10;66.20
6824;DHT22;58633;49.470;11.004;2022-12-19T06:00:39;-0.50;68.00
6824;DHT22;58633;49.470;11.004;2022-12-19T06:03:05;0.00;68.50
6824;DHT22;58633;49.470;11.004;2022-12-19T06:05:30;-1.00;66.60
6824;DHT22;58633;49.470;11.004;2022-12-19T06:07:56;-0.90;66.90
6824;DHT22;58633;49.470;11.004;2022-12-19T06:12:47;-0.50;68.50
6824;DHT22;58633;49.470;11.004;2022-12-19T06:15:13;0.30;69.20
6824;DHT22;58633;49.470;11.004;2022-12-19T06:17:38;-0.70;67.10
6824;DHT22;58633;49.470;11.004;2022-12-19T06:20:04;-0.90;68.30
6824;DHT22;58633;49.470;11.004;2022-12-19T06:24:56;0.20;69.40
6824;DHT22;58633;49.470;11.004;2022-12-19T06:27:22;-0.60;67.80
6824;DHT22;58633;49.470;11.004;2022-12-19T06:29:48;0.00;70.00
6824;DHT22;58633;49.470;11.004;2022-12-19T06:37:05;-0.90;68.70
6824;DHT22;58633;49.470;11.004;2022-12-19T06:39:31;0.50;70.30
6824;DHT22;58633;49.470;11.004;2022-12-19T06:41:56;-0.10;69.90
6824;DHT22;58633;49.470;11.004;2022-12-19T06:44:40;0.60;71.10
6824;DHT22;58633;49.470;11.004;2022-12-19T06:47:06;0.10;70.50
6824;DHT22;58633;49.470;11.004;2022-12-19T06:54:24;-0.70;67.20
6824;DHT22;58633;49.470;11.004;2022-12-19T06:56:50;-1.00;69.90
6824;DHT22;58633;49.470;11.004;2022-12-19T07:02:20;-0.60;70.20
6824;DHT22;58633;49.470;11.004;2022-12-19T07:04:50;-0.40;67.70
6824;DHT22;58633;49.470;11.004;2022-12-19T07:07:17;-0.30;71.00
6824;DHT22;58633;49.470;11.004;2022-12-19T07:09:42;-0.20;71.10
6824;DHT22;58633;49.470;11.004;2022-12-19T07:12:08;-0.50;67.70
6824;DHT22;58633;49.470;11.004;2022-12-19T07:14:33;-0.50;67.70
6824;DHT22;58633;49.470;11.004;2022-12-19T07:17:00;-0.40;67.80
6824;DHT22;58633;49.470;11.004;2022-12-19T07:19:27;-0.80;71.10
6824;DHT22;58633;49.470;11.004;2022-12-19T07:21:55;-0.50;67.60
6824;DHT22;58633;49.470;11.004;2022-12-19T07:36:31;-0.40;68.10
6824;DHT22;58633;49.470;11.004;2022-12-19T07:41:22;-0.30;72.50
6824;DHT22;58633;49.470;11.004;2022-12-19T07:43:48;-0.40;71.40
6824;DHT22;58633;49.470;11.004;2022-12-19T07:46:13;-0.50;68.10
6824;DHT22;58633;49.470;11.004;2022-12-19T07:48:39;0.10;71.10
6824;DHT22;58633;49.470;11.004;2022-12-19T07:51:04;1.10;72.20
6824;DHT22;58633;49.470;11.004;2022-12-19T07:53:30;-0.60;70.50
6824;DHT22;58633;49.470;11.004;2022-12-19T07:55:56;0.30;71.50
6824;DHT22;58633;49.470;11.004;2022-12-19T07:58:22;0.60;71.60
6824;DHT22;58633;49.470;11.004;2022-12-19T08:00:59;-0.20;68.60
6824;DHT22;58633;49.470;11.004;2022-12-19T08:03:27;-0.20;68.40
6824;DHT22;58633;49.470;11.004;2022-12-19T08:05:58;0.90;72.10
6824;DHT22;58633;49.470;11.004;2022-12-19T08:13:16;-0.70;70.20
6824;DHT22;58633;49.470;11.004;2022-12-19T08:30:19;0.50;71.40
6824;DHT22;58633;49.470;11.004;2022-12-19T08:32:44;1.20;73.90
6824;DHT22;58633;49.470;11.004;2022-12-19T08:35:10;1.90;74.20
6824;DHT22;58633;49.470;11.004;2022-12-19T08:40:02;0.50;71.10
6824;DHT22;58633;49.470;11.004;2022-12-19T08:52:11;0.90;69.40
6824;DHT22;58633;49.470;11.004;2022-12-19T08:54:37;1.00;69.70
6824;DHT22;58633;49.470;11.004;2022-12-19T08:59:28;1.50;70.80
6824;DHT22;58633;49.470;11.004;2022-12-19T09:01:54;1.10;70.60
6824;DHT22;58633;49.470;11.004;2022-12-19T09:06:45;1.30;70.80
6824;DHT22;58633;49.470;11.004;2022-12-19T09:09:11;1.30;70.20
6824;DHT22;58633;49.470;11.004;2022-12-19T09:11:36;0.40;69.90
6824;DHT22;58633;49.470;11.004;2022-12-19T09:14:02;0.90;68.60
6824;DHT22;58633;49.470;11.004;2022-12-19T09:16:29;1.00;70.20
6824;DHT22;58633;49.470;11.004;2022-12-19T09:18:55;1.10;68.90
6824;DHT22;58633;49.470;11.004;2022-12-19T09:21:25;1.20;70.00
6824;DHT22;58633;49.470;11.004;2022-12-19T09:23:53;1.10;69.80
6824;DHT22;58633;49.470;11.004;2022-12-19T09:28:46;1.10;68.60
6824;DHT22;58633;49.470;11.004;2022-12-19T09:31:18;1.20;68.50
6824;DHT22;58633;49.470;11.004;2022-12-19T09:33:44;0.80;74.10
6824;DHT22;58633;49.470;11.004;2022-12-19T09:36:15;0.50;74.10
6824;DHT22;58633;49.470;11.004;2022-12-19T09:38:41;1.50;74.60
6824;DHT22;58633;49.470;11.004;2022-12-19T09:44:13;1.20;68.30
6824;DHT22;58633;49.470;11.004;2022-12-19T09:46:50;1.20;68.30
6824;DHT22;58633;49.470;11.004;2022-12-19T09:49:20;1.30;68.40
6824;DHT22;58633;49.470;11.004;2022-12-19T09:51:59;0.30;72.90
6824;DHT22;58633;49.470;11.004;2022-12-19T09:57:09;1.10;73.00
6824;DHT22;58633;49.470;11.004;2022-12-19T09:59:45;1.80;73.30
6824;DHT22;58633;49.470;11.004;2022-12-19T10:02:25;1.50;68.20
6824;DHT22;58633;49.470;11.004;2022-12-19T10:04:58;1.50;68.20
6824;DHT22;58633;49.470;11.004;2022-12-19T10:09:53;1.60;68.10
6824;DHT22;58633;49.470;11.004;2022-12-19T10:12:37;1.60;68.00
6824;DHT22;58633;49.470;11.004;2022-12-19T10:15:50;1.70;68.20
6824;DHT22;58633;49.470;11.004;2022-12-19T10:18:22;2.30;74.00
6824;DHT22;58633;49.470;11.004;2022-12-19T10:21:07;1.70;68.10
6824;DHT22;58633;49.470;11.004;2022-12-19T10:26:18;2.20;74.20
6824;DHT22;58633;49.470;11.004;2022-12-19T10:29:12;1.80;67.80
6824;DHT22;58633;49.470;11.004;2022-12-19T10:31:50;2.00;74.50
6824;DHT22;58633;49.470;11.004;2022-12-19T10:34:29;2.00;68.10
6824;DHT22;58633;49.470;11.004;2022-12-19T10:37:00;2.10;68.00
6824;DHT22;58633;49.470;11.004;2022-12-19T10:39:32;2.30;74.80
6824;DHT22;58633;49.470;11.004;2022-12-19T10:42:12;2.30;67.90
6824;DHT22;58633;49.470;11.004;2022-12-19T10:44:41;2.90;75.60
6824;DHT22;58633;49.470;11.004;2022-12-19T10:47:14;2.10;67.70
6824;DHT22;58633;49.470;11.004;2022-12-19T10:52:07;2.10;67.60
6824;DHT22;58633;49.470;11.004;2022-12-19T10:57:29;2.00;67.60
6824;DHT22;58633;49.470;11.004;2022-12-19T11:00:13;2.60;74.60
6824;DHT22;58633;49.470;11.004;2022-12-19T11:02:44;2.20;67.70
6824;DHT22;58633;49.470;11.004;2022-12-19T11:10:37;2.40;67.70
6824;DHT22;58633;49.470;11.004;2022-12-19T11:13:25;2.20;67.50
6824;DHT22;58633;49.470;11.004;2022-12-19T11:15:54;1.90;72.90
6824;DHT22;58633;49.470;11.004;2022-12-19T11:20:56;2.20;67.60
6824;DHT22;58633;49.470;11.004;2022-12-19T11:25:58;2.40;68.10
6824;DHT22;58633;49.470;11.004;2022-12-19T11:28:35;2.50;68.20
6824;DHT22;58633;49.470;11.004;2022-12-19T11:31:10;2.60;68.10
6824;DHT22;58633;49.470;11.004;2022-12-19T11:33:44;2.60;67.90
6824;DHT22;58633;49.470;11.004;2022-12-19T11:36:33;2.70;67.80
6824;DHT22;58633;49.470;11.004;2022-12-19T11:39:01;3.00;74.40
6824;DHT22;58633;49.470;11.004;2022-12-19T11:41:40;2.70;67.50
6824;DHT22;58633;49.470;11.004;2022-12-19T11:44:30;2.70;67.50
6824;DHT22;58633;49.470;11.004;2022-12-19T11:49:50;2.90;67.40
6824;DHT22;58633;49.470;11.004;2022-12-19T11:52:51;2.90;67.20
6824;DHT22;58633;49.470;11.004;2022-12-19T11:55:30;3.60;73.60
6824;DHT22;58633;49.470;11.004;2022-12-19T12:00:26;3.20;67.50
6824;DHT22;58633;49.470;11.004;2022-12-19T12:03:20;3.00;72.90
6824;DHT22;58633;49.470;11.004;2022-12-19T12:05:50;3.30;67.50
6824;DHT22;58633;49.470;11.004;2022-12-19T12:14:00;4.20;72.80
6824;DHT22;58633;49.470;11.004;2022-12-19T12:16:57;4.70;73.80
6824;DHT22;58633;49.470;11.004;2022-12-19T12:42:57;3.30;67.20
6824;DHT22;58633;49.470;11.004;2022-12-19T12:45:40;4.50;73.90
6824;DHT22;58633;49.470;11.004;2022-12-19T12:50:51;4.40;74.60
6824;DHT22;58633;49.470;11.004;2022-12-19T12:53:21;3.40;67.20
6824;DHT22;58633;49.470;11.004;2022-12-19T12:55:49;3.10;72.30
6824;DHT22;58633;49.470;11.004;2022-12-19T12:58:41;3.50;67.10
6824;DHT22;58633;49.470;11.004;2022-12-19T13:01:09;3.20;73.50
6824;DHT22;58633;49.470;11.004;2022-12-19T13:03:38;3.50;73.00
6824;DHT22;58633;49.470;11.004;2022-12-19T13:06:18;3.40;67.20
6824;DHT22;58633;49.470;11.004;2022-12-19T13:08:47;3.40;67.20
6824;DHT22;58633;49.470;11.004;2022-12-19T13:19:14;3.50;67.10
6824;DHT22;58633;49.470;11.004;2022-12-19T13:24:49;3.90;67.20
6824;DHT22;58633;49.470;11.004;2022-12-19T13:32:31;4.60;72.10
6824;DHT22;58633;49.470;11.004;2022-12-19T13:35:01;3.90;66.60
6824;DHT22;58633;49.470;11.004;2022-12-19T13:40:00;4.20;67.50
6824;DHT22;58633;49.470;11.004;2022-12-19T13:45:22;4.20;66.00
6824;DHT22;58633;49.470;11.004;2022-12-19T13:47:49;4.10;66.10
6824;DHT22;58633;49.470;11.004;2022-12-19T13:55:18;3.70;69.10
6824;DHT22;58633;49.470;11.004;2022-12-19T13:57:46;4.00;66.70
6824;DHT22;58633;49.470;11.004;2022-12-19T14:00:19;4.00;66.50
6824;DHT22;58633;49.470;11.004;2022-12-19T14:02:51;3.50;70.10
6824;DHT22;58633;49.470;11.004;2022-12-19T14:05:33;3.90;66.50
6824;DHT22;58633;49.470;11.004;2022-12-19T14:08:04;4.20;71.80
6824;DHT22;58633;49.470;11.004;2022-12-19T14:10:33;4.60;68.40
6824;DHT22;58633;49.470;11.004;2022-12-19T14:13:02;3.90;66.80
6824;DHT22;58633;49.470;11.004;2022-12-19T14:15:48;3.40;71.20
6824;DHT22;58633;49.470;11.004;2022-12-19T14:18:25;3.60;66.80
6824;DHT22;58633;49.470;11.004;2022-12-19T14:21:22;3.80;67.00
6824;DHT22;58633;49.470;11.004;2022-12-19T14:23:48;3.80;71.80
6824;DHT22;58633;49.470;11.004;2022-12-19T14:26:26;3.80;67.20
6824;DHT22;58633;49.470;11.004;2022-12-19T14:29:00;3.80;67.20
6824;DHT22;58633;49.470;11.004;2022-12-19T14:33:55;3.70;67.00
6824;DHT22;58633;49.470;11.004;2022-12-19T14:36:29;3.60;67.00
6824;DHT22;58633;49.470;11.004;2022-12-19T14:38:56;3.60;67.10
6824;DHT22;58633;49.470;11.004;2022-12-19T14:44:16;3.50;67.20
6824;DHT22;58633;49.470;11.004;2022-12-19T14:49:29;3.70;67.40
6824;DHT22;58633;49.470;11.004;2022-12-19T14:57:01;3.80;74.50
6824;DHT22;58633;49.470;11.004;2022-12-19T15:04:25;3.50;67.30
6824;DHT22;58633;49.470;11.004;2022-12-19T15:06:54;3.60;67.70
6824;DHT22;58633;49.470;11.004;2022-12-19T15:11:48;3.90;75.40
6824;DHT22;58633;49.470;11.004;2022-12-19T15:14:45;3.80;74.70
6824;DHT22;58633;49.470;11.004;2022-12-19T15:17:19;5.20;77.00
6824;DHT22;58633;49.470;11.004;2022-12-19T15:22:11;5.00;76.60
6824;DHT22;58633;49.470;11.004;2022-12-19T15:29:29;3.50;68.30
6824;DHT22;58633;49.470;11.004;2022-12-19T15:31:56;3.20;74.60
6824;DHT22;58633;49.470;11.004;2022-12-19T15:34:30;3.60;68.10
6824;DHT22;58633;49.470;11.004;2022-12-19T15:41:55;3.40;68.00
6824;DHT22;58633;49.470;11.004;2022-12-19T15:44:29;3.40;68.00
6824;DHT22;58633;49.470;11.004;2022-12-19T15:59:30;3.40;68.10
6824;DHT22;58633;49.470;11.004;2022-12-19T16:09:22;3.30;68.40
6824;DHT22;58633;49.470;11.004;2022-12-19T16:11:49;3.30;68.40
6824;DHT22;58633;49.470;11.004;2022-12-19T16:14:16;3.30;68.50
6824;DHT22;58633;49.470;11.004;2022-12-19T16:19:27;3.30;68.70
6824;DHT22;58633;49.470;11.004;2022-12-19T16:26:53;3.40;68.80
6824;DHT22;58633;49.470;11.004;2022-12-19T16:29:24;3.40;68.70
6824;DHT22;58633;49.470;11.004;2022-12-19T16:34:19;3.40;68.70
6824;DHT22;58633;49.470;11.004;2022-12-19T16:44:15;3.40;68.80
6824;DHT22;58633;49.470;11.004;2022-12-19T16:49:16;3.30;68.90
6824;DHT22;58633;49.470;11.004;2022-12-19T16:54:10;3.20;68.90
6824;DHT22;58633;49.470;11.004;2022-12-19T16:56:42;3.30;69.00
6824;DHT22;58633;49.470;11.004;2022-12-19T17:01:41;3.60;77.20
6824;DHT22;58633;49.470;11.004;2022-12-19T17:04:11;3.30;69.30
6824;DHT22;58633;49.470;11.004;2022-12-19T17:11:30;4.10;78.40
6824;DHT22;58633;49.470;11.004;2022-12-19T17:14:03;3.60;76.80
6824;DHT22;58633;49.470;11.004;2022-12-19T17:18:57;3.40;68.90
6824;DHT22;58633;49.470;11.004;2022-12-19T17:23:49;4.10;79.60
6824;DHT22;58633;49.470;11.004;2022-12-19T17:31:27;3.20;69.20
6824;DHT22;58633;49.470;11.004;2022-12-19T17:33:54;3.80;79.50
6824;DHT22;58633;49.470;11.004;2022-12-19T17:36:20;3.10;69.10
6824;DHT22;58633;49.470;11.004;2022-12-19T17:46:18;3.00;69.20
6824;DHT22;58633;49.470;11.004;2022-12-19T17:48:46;3.20;69.50
6824;DHT22;58633;49.470;11.004;2022-12-19T17:51:16;3.00;69.30
6824;DHT22;58633;49.470;11.004;2022-12-19T17:56:16;3.00;69.60
6824;DHT22;58633;49.470;11.004;2022-12-19T18:01:29;3.00;69.60
6824;DHT22;58633;49.470;11.004;2022-12-19T18:03:55;2.60;80.10
6824;DHT22;58633;49.470;11.004;2022-12-19T18:11:23;2.90;81.60
6824;DHT22;58633;49.470;11.004;2022-12-19T18:18:46;3.30;82.40
6824;DHT22;58633;49.470;11.004;2022-12-19T18:21:14;2.40;80.80
6824;DHT22;58633;49.470;11.004;2022-12-19T18:31:02;2.90;70.10
6824;DHT22;58633;49.470;11.004;2022-12-19T18:33:35;2.80;69.90
6824;DHT22;58633;49.470;11.004;2022-12-19T18:45:47;3.00;70.40
6824;DHT22;58633;49.470;11.004;2022-12-19T18:48:26;3.10;70.40
6824;DHT22;58633;49.470;11.004;2022-12-19T18:50:53;3.00;70.00
6824;DHT22;58633;49.470;11.004;2022-12-19T18:53:21;3.00;70.10
6824;DHT22;58633;49.470;11.004;2022-12-19T18:55:47;2.80;71.00
6824;DHT22;58633;49.470;11.004;2022-12-19T18:58:13;3.00;70.30
6824;DHT22;58633;49.470;11.004;2022-12-19T19:00:39;2.80;69.90
6824;DHT22;58633;49.470;11.004;2022-12-19T19:03:10;2.90;70.10
6824;DHT22;58633;49.470;11.004;2022-12-19T19:05:39;2.80;70.00
6824;DHT22;58633;49.470;11.004;2022-12-19T19:08:17;2.80;70.00
6824;DHT22;58633;49.470;11.004;2022-12-19T19:10:45;2.80;70.10
6824;DHT22;58633;49.470;11.004;2022-12-19T19:13:11;2.70;70.50
6824;DHT22;58633;49.470;11.004;2022-12-19T19:15:44;2.70;70.70
6824;DHT22;58633;49.470;11.004;2022-12-19T19:18:10;2.70;70.70
6824;DHT22;58633;49.470;11.004;2022-12-19T19:20:38;2.70;70.80
6824;DHT22;58633;49.470;11.004;2022-12-19T19:23:06;2.70;71.60
6824;DHT22;58633;49.470;11.004;2022-12-19T19:25:35;2.70;70.90
6824;DHT22;58633;49.470;11.004;2022-12-19T19:28:02;2.70;71.10
6824;DHT22;58633;49.470;11.004;2022-12-19T19:30:28;5.50;73.70
6824;DHT22;58633;49.470;11.004;2022-12-19T19:33:00;2.60;71.00
6824;DHT22;58633;49.470;11.004;2022-12-19T19:35:28;2.60;71.10
6824;DHT22;58633;49.470;11.004;2022-12-19T19:37:55;2.70;71.20
6824;DHT22;58633;49.470;11.004;2022-12-19T19:40:23;2.70;71.10
6824;DHT22;58633;49.470;11.004;2022-12-19T19:42:49;2.70;71.10
6824;DHT22;58633;49.470;11.004;2022-12-19T19:45:17;2.60;71.10
6824;DHT22;58633;49.470;11.004;2022-12-19T19:47:42;2.70;71.10
6824;DHT22;58633;49.470;11.004;2022-12-19T19:50:10;2.70;71.10
6824;DHT22;58633;49.470;11.004;2022-12-19T19:52:37;2.70;71.10
6824;DHT22;58633;49.470;11.004;2022-12-19T19:55:07;2.70;71.30
6824;DHT22;58633;49.470;11.004;2022-12-19T19:57:34;2.60;71.10
6824;DHT22;58633;49.470;11.004;2022-12-19T20:00:00;2.70;71.20
6824;DHT22;58633;49.470;11.004;2022-12-19T20:02:25;2.60;71.10
6824;DHT22;58633;49.470;11.004;2022-12-19T20:04:51;2.60;71.20
6824;DHT22;58633;49.470;11.004;2022-12-19T20:07:16;2.50;71.10
6824;DHT22;58633;49.470;11.004;2022-12-19T20:09:42;2.50;71.20
6824;DHT22;58633;49.470;11.004;2022-12-19T20:12:08;2.50;71.40
6824;DHT22;58633;49.470;11.004;2022-12-19T20:14:34;2.50;71.50
6824;DHT22;58633;49.470;11.004;2022-12-19T20:16:59;2.50;71.50
6824;DHT22;58633;49.470;11.004;2022-12-19T20:19:25;2.50;71.50
6824;DHT22;58633;49.470;11.004;2022-12-19T20:21:50;2.50;71.50
6824;DHT22;58633;49.470;11.004;2022-12-19T20:24:16;2.50;71.50
6824;DHT22;58633;49.470;11.004;2022-12-19T20:26:41;2.50;71.50
6824;DHT22;58633;49.470;11.004;2022-12-19T20:29:08;2.50;71.60
6824;DHT22;58633;49.470;11.004;2022-12-19T20:31:36;2.50;71.70
6824;DHT22;58633;49.470;11.004;2022-12-19T20:34:05;2.50;71.70
6824;DHT22;58633;49.470;11.004;2022-12-19T20:36:31;2.40;71.60
6824;DHT22;58633;49.470;11.004;2022-12-19T20:38:57;2.40;71.80
6824;DHT22;58633;49.470;11.004;2022-12-19T20:41:22;2.40;71.80
6824;DHT22;58633;49.470;11.004;2022-12-19T20:43:48;2.40;71.80
6824;DHT22;58633;49.470;11.004;2022-12-19T20:46:16;2.50;71.80
6824;DHT22;58633;49.470;11.004;2022-12-19T20:48:42;2.40;71.80
6824;DHT22;58633;49.470;11.004;2022-12-19T20:51:08;2.40;72.00
6824;DHT22;58633;49.470;11.004;2022-12-19T20:53:35;2.40;72.00
6824;DHT22;58633;49.470;11.004;2022-12-19T20:56:02;2.40;72.10
6824;DHT22;58633;49.470;11.004;2022-12-19T20:58:30;2.40;72.20
6824;DHT22;58633;49.470;11.004;2022-12-19T21:01:09;2.40;72.10
6824;DHT22;58633;49.470;11.004;2022-12-19T21:03:35;2.40;72.30
6824;DHT22;58633;49.470;11.004;2022-12-19T21:06:01;2.50;72.20
6824;DHT22;58633;49.470;11.004;2022-12-19T21:08:27;2.50;72.30
6824;DHT22;58633;49.470;11.004;2022-12-19T21:10:52;2.60;72.40
6824;DHT22;58633;49.470;11.004;2022-12-19T21:13:19;2.70;72.40
6824;DHT22;58633;49.470;11.004;2022-12-19T21:15:49;2.60;72.00
6824;DHT22;58633;49.470;11.004;2022-12-19T21:18:15;2.60;72.20
6824;DHT22;58633;49.470;11.004;2022-12-19T21:20:41;2.60;72.20
6824;DHT22;58633;49.470;11.004;2022-12-19T21:23:06;2.60;72.10
6824;DHT22;58633;49.470;11.004;2022-12-19T21:25:32;2.60;72.00
6824;DHT22;58633;49.470;11.004;2022-12-19T21:27:57;2.60;72.00
6824;DHT22;58633;49.470;11.004;2022-12-19T21:30:23;2.60;72.00
6824;DHT22;58633;49.470;11.004;2022-12-19T21:32:49;2.50;72.10
6824;DHT22;58633;49.470;11.004;2022-12-19T21:35:14;2.50;72.10
6824;DHT22;58633;49.470;11.004;2022-12-19T21:37:40;2.50;72.20
6824;DHT22;58633;49.470;11.004;2022-12-19T21:40:07;2.60;72.40
6824;DHT22;58633;49.470;11.004;2022-12-19T21:42:33;2.60;72.50
6824;DHT22;58633;49.470;11.004;2022-12-19T21:44:58;2.70;72.30
6824;DHT22;58633;49.470;11.004;2022-12-19T21:47:24;2.70;72.10
6824;DHT22;58633;49.470;11.004;2022-12-19T21:49:49;2.70;72.00
6824;DHT22;58633;49.470;11.004;2022-12-19T21:52:15;2.70;72.20
6824;DHT22;58633;49.470;11.004;2022-12-19T21:54:41;2.60;71.90
6824;DHT22;58633;49.470;11.004;2022-12-19T21:57:06;2.60;72.00
6824;DHT22;58633;49.470;11.004;2022-12-19T21:59:32;2.50;72.10
6824;DHT22;58633;49.470;11.004;2022-12-19T22:01:57;2.50;72.10
6824;DHT22;58633;49.470;11.004;2022-12-19T22:04:23;2.50;72.20
6824;DHT22;58633;49.470;11.004;2022-12-19T22:06:51;2.50;72.30
6824;DHT22;58633;49.470;11.004;2022-12-19T22:09:19;2.40;72.30
6824;DHT22;58633;49.470;11.004;2022-12-19T22:11:45;2.50;72.60
6824;DHT22;58633;49.470;11.004;2022-12-19T22:14:12;2.50;72.60
6824;DHT22;58633;49.470;11.004;2022-12-19T22:16:38;2.50;72.70
6824;DHT22;58633;49.470;11.004;2022-12-19T22:19:04;2.50;72.50
6824;DHT22;58633;49.470;11.004;2022-12-19T22:21:30;2.50;72.60
6824;DHT22;58633;49.470;11.004;2022-12-19T22:23:58;2.50;72.40
6824;DHT22;58633;49.470;11.004;2022-12-19T22:26:24;2.50;73.20
6824;DHT22;58633;49.470;11.004;2022-12-19T22:28:52;2.50;72.60
6824;DHT22;58633;49.470;11.004;2022-12-19T22:31:27;2.50;72.60
6824;DHT22;58633;49.470;11.004;2022-12-19T22:33:58;2.40;72.60
6824;DHT22;58633;49.470;11.004;2022-12-19T22:36:25;2.40;72.70
6824;DHT22;58633;49.470;11.004;2022-12-19T22:38:52;2.40;72.90
6824;DHT22;58633;49.470;11.004;2022-12-19T22:41:18;2.40;72.90
6824;DHT22;58633;49.470;11.004;2022-12-19T22:43:45;2.40;72.80
6824;DHT22;58633;49.470;11.004;2022-12-19T22:46:16;2.40;72.90
6824;DHT22;58633;49.470;11.004;2022-12-19T22:48:42;2.50;73.20
6824;DHT22;58633;49.470;11.004;2022-12-19T22:51:09;2.80;74.00
6824;DHT22;58633;49.470;11.004;2022-12-19T22:53:35;2.90;72.90
6824;DHT22;58633;49.470;11.004;2022-12-19T22:56:02;2.80;72.40
6824;DHT22;58633;49.470;11.004;2022-12-19T22:58:35;2.70;72.50
6824;DHT22;58633;49.470;11.004;2022-12-19T23:01:31;2.70;72.70
6824;DHT22;58633;49.470;11.004;2022-12-19T23:03:57;2.60;72.70
6824;DHT22;58633;49.470;11.004;2022-12-19T23:06:25;2.60;72.80